sensor_id;sensor_type;location;lat;lon;timestamp;pressure;altitude;pressure_sealevel;temperature;humidity
27729;BME280;15126;42.186;24.340;2023-08-08T00:00:13;98867.66;;;23.47;60.60
27729;BME280;15126;42.186;24.340;2023-08-08T00:02:40;98870.97;;;23.51;60.39
27729;BME280;15126;42.186;24.340;2023-08-08T00:05:07;98855.59;;;23.30;61.02
27729;BME280;15126;42.186;24.340;2023-08-08T00:07:36;98868.53;;;23.31;61.35
27729;BME280;15126;42.186;24.340;2023-08-08T00:10:03;98859.50;;;23.27;60.98
27729;BME280;15126;42.186;24.340;2023-08-08T00:12:30;98862.69;;;23.18;61.30
27729;BME280;15126;42.186;24.340;2023-08-08T00:14:56;98875.88;;;23.16;61.71
27729;BME280;15126;42.186;24.340;2023-08-08T00:17:23;98876.44;;;23.08;61.85
27729;BME280;15126;42.186;24.340;2023-08-08T00:19:50;98881.16;;;23.00;62.47
27729;BME280;15126;42.186;24.340;2023-08-08T00:22:17;98888.59;;;23.09;62.35
27729;BME280;15126;42.186;24.340;2023-08-08T00:24:45;98891.22;;;23.07;62.58
27729;BME280;15126;42.186;24.340;2023-08-08T00:27:12;98900.31;;;22.94;61.55
27729;BME280;15126;42.186;24.340;2023-08-08T00:29:38;98889.25;;;22.85;61.08
27729;BME280;15126;42.186;24.340;2023-08-08T00:32:06;98906.59;;;22.82;61.08
27729;BME280;15126;42.186;24.340;2023-08-08T00:34:32;98896.25;;;22.79;61.67
27729;BME280;15126;42.186;24.340;2023-08-08T00:36:59;98910.22;;;22.82;60.71
27729;BME280;15126;42.186;24.340;2023-08-08T00:39:26;98886.50;;;22.58;60.68
27729;BME280;15126;42.186;24.340;2023-08-08T00:41:54;98914.41;;;22.70;60.81
27729;BME280;15126;42.186;24.340;2023-08-08T00:44:21;98912.34;;;22.71;60.91
27729;BME280;15126;42.186;24.340;2023-08-08T00:46:48;98911.06;;;22.61;62.31
27729;BME280;15126;42.186;24.340;2023-08-08T00:49:14;98926.56;;;22.60;62.63
27729;BME280;15126;42.186;24.340;2023-08-08T00:51:41;98914.75;;;22.44;62.85
27729;BME280;15126;42.186;24.340;2023-08-08T00:54:09;98920.13;;;22.48;63.10
27729;BME280;15126;42.186;24.340;2023-08-08T00:56:36;98915.75;;;22.47;63.79
27729;BME280;15126;42.186;24.340;2023-08-08T00:59:05;98921.16;;;22.45;63.76
27729;BME280;15126;42.186;24.340;2023-08-08T01:01:33;98910.34;;;22.38;63.92
27729;BME280;15126;42.186;24.340;2023-08-08T01:04:00;98908.56;;;22.29;64.43
27729;BME280;15126;42.186;24.340;2023-08-08T01:06:31;98909.34;;;22.30;65.21
27729;BME280;15126;42.186;24.340;2023-08-08T01:09:03;98926.63;;;22.37;64.89
27729;BME280;15126;42.186;24.340;2023-08-08T01:11:33;98917.84;;;22.35;64.71
27729;BME280;15126;42.186;24.340;2023-08-08T01:14:02;98932.31;;;22.32;65.39
27729;BME280;15126;42.186;24.340;2023-08-08T01:16:31;98938.78;;;22.32;64.25
27729;BME280;15126;42.186;24.340;2023-08-08T01:18:59;98920.22;;;22.20;64.45
27729;BME280;15126;42.186;24.340;2023-08-08T01:21:29;98931.56;;;22.26;64.12
27729;BME280;15126;42.186;24.340;2023-08-08T01:24:00;98932.63;;;22.28;64.27
27729;BME280;15126;42.186;24.340;2023-08-08T01:26:33;98946.53;;;22.26;63.60
27729;BME280;15126;42.186;24.340;2023-08-08T01:29:00;98937.56;;;22.00;64.39
27729;BME280;15126;42.186;24.340;2023-08-08T01:31:27;98951.22;;;22.07;64.96
27729;BME280;15126;42.186;24.340;2023-08-08T01:33:53;98959.25;;;22.03;65.41
27729;BME280;15126;42.186;24.340;2023-08-08T01:36:33;98955.88;;;21.93;65.72
27729;BME280;15126;42.186;24.340;2023-08-08T01:39:02;98959.00;;;21.90;66.07
27729;BME280;15126;42.186;24.340;2023-08-08T01:41:33;98960.00;;;21.81;66.02
27729;BME280;15126;42.186;24.340;2023-08-08T01:44:00;98952.75;;;21.75;65.35
27729;BME280;15126;42.186;24.340;2023-08-08T01:46:30;98964.38;;;21.77;65.84
27729;BME280;15126;42.186;24.340;2023-08-08T01:48:57;98962.31;;;21.83;66.09
27729;BME280;15126;42.186;24.340;2023-08-08T01:51:24;98970.31;;;21.79;66.85
27729;BME280;15126;42.186;24.340;2023-08-08T01:53:51;98982.19;;;21.83;66.68
27729;BME280;15126;42.186;24.340;2023-08-08T01:56:18;98976.50;;;21.77;67.09
27729;BME280;15126;42.186;24.340;2023-08-08T01:58:46;98972.63;;;21.69;68.14
27729;BME280;15126;42.186;24.340;2023-08-08T02:01:13;98980.38;;;21.69;68.36
27729;BME280;15126;42.186;24.340;2023-08-08T02:03:40;98978.31;;;21.69;69.19
27729;BME280;15126;42.186;24.340;2023-08-08T02:06:07;98971.34;;;21.54;70.46
27729;BME280;15126;42.186;24.340;2023-08-08T02:08:33;98981.13;;;21.53;71.62
27729;BME280;15126;42.186;24.340;2023-08-08T02:11:00;98981.13;;;21.58;72.55
27729;BME280;15126;42.186;24.340;2023-08-08T02:13:27;98988.84;;;21.41;73.13
27729;BME280;15126;42.186;24.340;2023-08-08T02:15:56;98977.19;;;21.28;74.01
27729;BME280;15126;42.186;24.340;2023-08-08T02:18:23;98971.53;;;21.17;75.37
27729;BME280;15126;42.186;24.340;2023-08-08T02:20:49;98974.38;;;21.17;76.63
27729;BME280;15126;42.186;24.340;2023-08-08T02:23:16;98969.84;;;20.94;78.83
27729;BME280;15126;42.186;24.340;2023-08-08T02:25:43;98966.22;;;20.88;79.89
27729;BME280;15126;42.186;24.340;2023-08-08T02:28:10;98987.41;;;20.98;80.65
27729;BME280;15126;42.186;24.340;2023-08-08T02:30:37;98976.81;;;20.98;80.43
27729;BME280;15126;42.186;24.340;2023-08-08T02:33:05;98985.84;;;20.97;80.39
27729;BME280;15126;42.186;24.340;2023-08-08T02:35:32;98988.44;;;21.00;80.79
27729;BME280;15126;42.186;24.340;2023-08-08T02:37:59;98987.91;;;20.96;80.82
27729;BME280;15126;42.186;24.340;2023-08-08T02:40:26;98996.16;;;20.94;80.31
27729;BME280;15126;42.186;24.340;2023-08-08T02:42:53;99001.31;;;21.01;79.66
27729;BME280;15126;42.186;24.340;2023-08-08T02:45:20;98994.97;;;20.64;79.83
27729;BME280;15126;42.186;24.340;2023-08-08T02:47:46;98997.81;;;20.64;79.77
27729;BME280;15126;42.186;24.340;2023-08-08T02:50:15;99017.63;;;20.58;79.91
27729;BME280;15126;42.186;24.340;2023-08-08T02:52:42;99011.91;;;20.53;80.47
27729;BME280;15126;42.186;24.340;2023-08-08T02:55:09;99012.47;;;20.57;80.65
27729;BME280;15126;42.186;24.340;2023-08-08T02:57:35;99019.84;;;20.43;82.21
27729;BME280;15126;42.186;24.340;2023-08-08T03:00:06;99025.94;;;20.31;84.00
27729;BME280;15126;42.186;24.340;2023-08-08T03:02:33;99031.56;;;20.25;85.16
27729;BME280;15126;42.186;24.340;2023-08-08T03:05:00;99036.34;;;20.13;85.35
27729;BME280;15126;42.186;24.340;2023-08-08T03:07:28;99034.56;;;20.16;86.32
27729;BME280;15126;42.186;24.340;2023-08-08T03:09:55;99048.25;;;20.23;86.87
27729;BME280;15126;42.186;24.340;2023-08-08T03:12:22;99050.22;;;20.11;86.84
27729;BME280;15126;42.186;24.340;2023-08-08T03:14:49;99052.88;;;19.95;87.95
27729;BME280;15126;42.186;24.340;2023-08-08T03:17:15;99059.59;;;19.92;89.29
27729;BME280;15126;42.186;24.340;2023-08-08T03:19:50;99063.50;;;19.74;89.30
27729;BME280;15126;42.186;24.340;2023-08-08T03:22:16;99085.44;;;19.79;90.90
27729;BME280;15126;42.186;24.340;2023-08-08T03:24:45;99084.97;;;19.60;91.11
27729;BME280;15126;42.186;24.340;2023-08-08T03:27:11;99084.03;;;19.69;92.77
27729;BME280;15126;42.186;24.340;2023-08-08T03:29:38;99067.84;;;19.70;94.27
27729;BME280;15126;42.186;24.340;2023-08-08T03:32:06;99067.34;;;19.71;94.56
27729;BME280;15126;42.186;24.340;2023-08-08T03:34:35;99073.31;;;19.53;94.34
27729;BME280;15126;42.186;24.340;2023-08-08T03:37:03;99083.53;;;19.45;94.49
27729;BME280;15126;42.186;24.340;2023-08-08T03:39:33;99108.59;;;19.37;95.55
27729;BME280;15126;42.186;24.340;2023-08-08T03:42:01;99109.25;;;19.47;95.99
27729;BME280;15126;42.186;24.340;2023-08-08T03:44:28;99119.31;;;19.48;96.64
27729;BME280;15126;42.186;24.340;2023-08-08T03:46:54;99124.19;;;19.47;96.52
27729;BME280;15126;42.186;24.340;2023-08-08T03:49:21;99133.72;;;19.50;96.19
27729;BME280;15126;42.186;24.340;2023-08-08T03:51:48;99138.81;;;19.46;96.94
27729;BME280;15126;42.186;24.340;2023-08-08T03:54:15;99139.03;;;19.42;97.33
27729;BME280;15126;42.186;24.340;2023-08-08T03:56:41;99140.91;;;19.31;97.37
27729;BME280;15126;42.186;24.340;2023-08-08T03:59:10;99132.84;;;19.24;98.48
27729;BME280;15126;42.186;24.340;2023-08-08T04:01:36;99145.78;;;19.30;99.18
27729;BME280;15126;42.186;24.340;2023-08-08T04:04:06;99150.16;;;19.11;98.58
27729;BME280;15126;42.186;24.340;2023-08-08T04:06:33;99151.09;;;19.23;98.58
27729;BME280;15126;42.186;24.340;2023-08-08T04:09:00;99159.28;;;19.21;98.42
27729;BME280;15126;42.186;24.340;2023-08-08T04:11:27;99168.06;;;19.23;98.32
27729;BME280;15126;42.186;24.340;2023-08-08T04:13:54;99169.03;;;19.20;98.04
27729;BME280;15126;42.186;24.340;2023-08-08T04:16:22;99167.78;;;19.21;97.95
27729;BME280;15126;42.186;24.340;2023-08-08T04:18:49;99155.97;;;19.22;98.23
27729;BME280;15126;42.186;24.340;2023-08-08T04:21:15;99152.94;;;19.26;97.89
27729;BME280;15126;42.186;24.340;2023-08-08T04:23:42;99152.81;;;19.35;96.96
27729;BME280;15126;42.186;24.340;2023-08-08T04:26:12;99145.38;;;19.37;96.51
27729;BME280;15126;42.186;24.340;2023-08-08T04:28:40;99147.41;;;19.37;94.46
27729;BME280;15126;42.186;24.340;2023-08-08T04:31:07;99156.50;;;19.41;95.38
27729;BME280;15126;42.186;24.340;2023-08-08T04:33:35;99184.38;;;19.48;96.14
27729;BME280;15126;42.186;24.340;2023-08-08T04:36:02;99176.44;;;19.52;95.69
27729;BME280;15126;42.186;24.340;2023-08-08T04:38:28;99167.47;;;19.53;94.99
27729;BME280;15126;42.186;24.340;2023-08-08T04:40:55;99177.72;;;19.51;93.41
27729;BME280;15126;42.186;24.340;2023-08-08T04:43:24;99195.69;;;19.48;92.04
27729;BME280;15126;42.186;24.340;2023-08-08T04:45:55;99194.91;;;19.47;91.65
27729;BME280;15126;42.186;24.340;2023-08-08T04:48:22;99192.97;;;19.39;92.08
27729;BME280;15126;42.186;24.340;2023-08-08T04:50:53;99208.97;;;19.42;92.83
27729;BME280;15126;42.186;24.340;2023-08-08T04:53:19;99238.97;;;19.54;93.21
27729;BME280;15126;42.186;24.340;2023-08-08T04:55:47;99249.00;;;19.55;91.32
27729;BME280;15126;42.186;24.340;2023-08-08T04:58:15;99239.66;;;19.49;90.83
27729;BME280;15126;42.186;24.340;2023-08-08T05:00:42;99234.88;;;19.55;91.03
27729;BME280;15126;42.186;24.340;2023-08-08T05:03:09;99227.72;;;19.59;90.74
27729;BME280;15126;42.186;24.340;2023-08-08T05:05:36;99219.09;;;19.48;89.77
27729;BME280;15126;42.186;24.340;2023-08-08T05:08:07;99243.94;;;19.59;89.84
27729;BME280;15126;42.186;24.340;2023-08-08T05:10:33;99243.63;;;19.57;90.16
27729;BME280;15126;42.186;24.340;2023-08-08T05:13:00;99248.66;;;19.47;89.39
27729;BME280;15126;42.186;24.340;2023-08-08T05:15:27;99248.53;;;19.56;90.55
27729;BME280;15126;42.186;24.340;2023-08-08T05:17:54;99255.44;;;19.55;91.82
27729;BME280;15126;42.186;24.340;2023-08-08T05:20:21;99260.03;;;19.53;90.33
27729;BME280;15126;42.186;24.340;2023-08-08T05:22:48;99267.31;;;19.59;90.97
27729;BME280;15126;42.186;24.340;2023-08-08T05:25:16;99270.53;;;19.67;91.44
27729;BME280;15126;42.186;24.340;2023-08-08T05:27:43;99269.84;;;19.72;91.27
27729;BME280;15126;42.186;24.340;2023-08-08T05:30:12;99277.09;;;19.79;91.08
27729;BME280;15126;42.186;24.340;2023-08-08T05:32:38;99269.66;;;19.81;91.06
27729;BME280;15126;42.186;24.340;2023-08-08T05:35:06;99269.19;;;19.83;91.13
27729;BME280;15126;42.186;24.340;2023-08-08T05:37:33;99273.59;;;19.84;90.37
27729;BME280;15126;42.186;24.340;2023-08-08T05:40:00;99272.88;;;19.89;89.53
27729;BME280;15126;42.186;24.340;2023-08-08T05:42:28;99269.47;;;19.85;89.71
27729;BME280;15126;42.186;24.340;2023-08-08T05:44:57;99254.69;;;19.75;89.15
27729;BME280;15126;42.186;24.340;2023-08-08T05:47:24;99281.94;;;19.93;89.21
27729;BME280;15126;42.186;24.340;2023-08-08T05:49:51;99282.16;;;19.89;88.01
27729;BME280;15126;42.186;24.340;2023-08-08T05:52:17;99277.84;;;19.94;87.76
27729;BME280;15126;42.186;24.340;2023-08-08T05:54:44;99274.28;;;19.99;89.30
27729;BME280;15126;42.186;24.340;2023-08-08T05:57:11;99280.53;;;20.03;90.01
27729;BME280;15126;42.186;24.340;2023-08-08T05:59:39;99281.06;;;20.07;89.95
27729;BME280;15126;42.186;24.340;2023-08-08T06:02:06;99283.00;;;20.15;90.15
27729;BME280;15126;42.186;24.340;2023-08-08T06:04:33;99287.66;;;20.18;89.59
27729;BME280;15126;42.186;24.340;2023-08-08T06:06:59;99276.88;;;20.23;88.76
27729;BME280;15126;42.186;24.340;2023-08-08T06:09:26;99288.38;;;20.34;88.76
27729;BME280;15126;42.186;24.340;2023-08-08T06:11:53;99287.94;;;20.41;88.95
27729;BME280;15126;42.186;24.340;2023-08-08T06:14:20;99274.00;;;20.37;88.88
27729;BME280;15126;42.186;24.340;2023-08-08T06:16:48;99280.28;;;20.47;88.96
27729;BME280;15126;42.186;24.340;2023-08-08T06:19:15;99296.97;;;20.65;88.88
27729;BME280;15126;42.186;24.340;2023-08-08T06:21:42;99288.88;;;20.58;89.36
27729;BME280;15126;42.186;24.340;2023-08-08T06:24:11;99306.06;;;20.74;88.71
27729;BME280;15126;42.186;24.340;2023-08-08T06:26:41;99291.94;;;20.80;86.96
27729;BME280;15126;42.186;24.340;2023-08-08T06:29:07;99296.16;;;20.90;86.62
27729;BME280;15126;42.186;24.340;2023-08-08T06:31:34;99290.31;;;20.99;89.18
27729;BME280;15126;42.186;24.340;2023-08-08T06:34:02;99284.69;;;21.05;87.72
27729;BME280;15126;42.186;24.340;2023-08-08T06:36:29;99288.19;;;21.20;87.20
27729;BME280;15126;42.186;24.340;2023-08-08T06:38:56;99278.66;;;21.23;84.68
27729;BME280;15126;42.186;24.340;2023-08-08T06:41:23;99290.41;;;21.36;85.41
27729;BME280;15126;42.186;24.340;2023-08-08T06:43:50;99281.09;;;21.35;84.16
27729;BME280;15126;42.186;24.340;2023-08-08T06:46:17;99280.63;;;21.43;83.68
27729;BME280;15126;42.186;24.340;2023-08-08T06:48:46;99280.44;;;21.52;84.55
27729;BME280;15126;42.186;24.340;2023-08-08T06:51:14;99280.22;;;21.61;85.12
27729;BME280;15126;42.186;24.340;2023-08-08T06:53:41;99287.50;;;21.67;85.04
27729;BME280;15126;42.186;24.340;2023-08-08T06:56:08;99289.88;;;21.80;85.49
27729;BME280;15126;42.186;24.340;2023-08-08T06:58:34;99292.53;;;21.89;82.63
27729;BME280;15126;42.186;24.340;2023-08-08T07:01:02;99299.81;;;21.96;80.23
27729;BME280;15126;42.186;24.340;2023-08-08T07:03:29;99294.63;;;21.94;79.35
27729;BME280;15126;42.186;24.340;2023-08-08T07:05:56;99298.75;;;21.87;79.20
27729;BME280;15126;42.186;24.340;2023-08-08T07:08:24;99304.00;;;21.69;75.94
27729;BME280;15126;42.186;24.340;2023-08-08T07:10:51;99300.66;;;21.70;77.92
27729;BME280;15126;42.186;24.340;2023-08-08T07:13:18;99302.94;;;21.66;75.58
27729;BME280;15126;42.186;24.340;2023-08-08T07:15:45;99302.66;;;21.59;74.91
27729;BME280;15126;42.186;24.340;2023-08-08T07:18:11;99298.47;;;21.49;73.96
27729;BME280;15126;42.186;24.340;2023-08-08T07:20:38;99310.69;;;21.60;76.83
27729;BME280;15126;42.186;24.340;2023-08-08T07:23:05;99303.63;;;21.50;75.87
27729;BME280;15126;42.186;24.340;2023-08-08T07:25:34;99313.72;;;21.51;73.00
27729;BME280;15126;42.186;24.340;2023-08-08T07:28:00;99309.06;;;21.54;72.88
27729;BME280;15126;42.186;24.340;2023-08-08T07:30:27;99304.19;;;21.54;73.74
27729;BME280;15126;42.186;24.340;2023-08-08T07:32:54;99321.41;;;21.45;72.76
27729;BME280;15126;42.186;24.340;2023-08-08T07:35:21;99324.47;;;21.42;76.36
27729;BME280;15126;42.186;24.340;2023-08-08T07:37:48;99311.09;;;21.48;73.41
27729;BME280;15126;42.186;24.340;2023-08-08T07:40:20;99319.13;;;21.49;74.03
27729;BME280;15126;42.186;24.340;2023-08-08T07:42:49;99323.88;;;21.63;74.48
27729;BME280;15126;42.186;24.340;2023-08-08T07:45:16;99308.56;;;21.55;71.59
27729;BME280;15126;42.186;24.340;2023-08-08T07:47:43;99325.00;;;21.82;74.95
27729;BME280;15126;42.186;24.340;2023-08-08T07:50:10;99328.50;;;22.03;74.71
27729;BME280;15126;42.186;24.340;2023-08-08T07:52:40;99324.47;;;22.26;73.45
27729;BME280;15126;42.186;24.340;2023-08-08T07:55:07;99329.44;;;22.48;71.67
27729;BME280;15126;42.186;24.340;2023-08-08T07:57:34;99326.66;;;22.59;69.54
27729;BME280;15126;42.186;24.340;2023-08-08T08:00:03;99321.78;;;22.65;70.08
27729;BME280;15126;42.186;24.340;2023-08-08T08:02:37;99318.97;;;22.71;68.91
27729;BME280;15126;42.186;24.340;2023-08-08T08:05:04;99317.69;;;22.72;69.10
27729;BME280;15126;42.186;24.340;2023-08-08T08:07:33;99317.19;;;22.95;70.85
27729;BME280;15126;42.186;24.340;2023-08-08T08:10:01;99316.94;;;23.21;72.31
27729;BME280;15126;42.186;24.340;2023-08-08T08:12:29;99312.03;;;23.44;68.30
27729;BME280;15126;42.186;24.340;2023-08-08T08:14:56;99296.50;;;23.61;66.56
27729;BME280;15126;42.186;24.340;2023-08-08T08:17:24;99317.34;;;24.03;66.97
27729;BME280;15126;42.186;24.340;2023-08-08T08:19:53;99328.69;;;24.25;61.97
27729;BME280;15126;42.186;24.340;2023-08-08T08:22:20;99316.19;;;24.39;61.93
27729;BME280;15126;42.186;24.340;2023-08-08T08:24:47;99324.66;;;24.61;59.50
27729;BME280;15126;42.186;24.340;2023-08-08T08:27:13;99307.47;;;24.72;58.12
27729;BME280;15126;42.186;24.340;2023-08-08T08:29:43;99313.84;;;24.90;55.85
27729;BME280;15126;42.186;24.340;2023-08-08T08:32:10;99320.00;;;25.05;57.33
27729;BME280;15126;42.186;24.340;2023-08-08T08:34:40;99320.88;;;25.24;57.34
27729;BME280;15126;42.186;24.340;2023-08-08T08:37:07;99317.63;;;25.38;55.64
27729;BME280;15126;42.186;24.340;2023-08-08T08:39:36;99306.56;;;25.29;51.48
27729;BME280;15126;42.186;24.340;2023-08-08T08:42:04;99316.91;;;25.32;53.21
27729;BME280;15126;42.186;24.340;2023-08-08T08:44:32;99308.88;;;25.31;51.77
27729;BME280;15126;42.186;24.340;2023-08-08T08:47:02;99309.47;;;25.24;51.88
27729;BME280;15126;42.186;24.340;2023-08-08T08:49:30;99304.63;;;25.43;52.89
27729;BME280;15126;42.186;24.340;2023-08-08T08:51:59;99300.63;;;25.57;52.51
27729;BME280;15126;42.186;24.340;2023-08-08T08:54:27;99291.94;;;25.68;51.07
27729;BME280;15126;42.186;24.340;2023-08-08T08:56:57;99296.75;;;25.79;50.97
27729;BME280;15126;42.186;24.340;2023-08-08T08:59:24;99279.84;;;25.81;49.62
27729;BME280;15126;42.186;24.340;2023-08-08T09:01:52;99301.91;;;26.04;50.24
27729;BME280;15126;42.186;24.340;2023-08-08T09:04:20;99296.31;;;26.18;48.63
27729;BME280;15126;42.186;24.340;2023-08-08T09:06:48;99305.38;;;26.22;47.46
27729;BME280;15126;42.186;24.340;2023-08-08T09:09:17;99292.72;;;26.36;49.92
27729;BME280;15126;42.186;24.340;2023-08-08T09:11:48;99296.50;;;26.44;49.86
27729;BME280;15126;42.186;24.340;2023-08-08T09:14:17;99296.88;;;26.53;47.47
27729;BME280;15126;42.186;24.340;2023-08-08T09:16:44;99291.00;;;26.65;47.79
27729;BME280;15126;42.186;24.340;2023-08-08T09:19:11;99292.41;;;26.77;47.87
27729;BME280;15126;42.186;24.340;2023-08-08T09:21:38;99293.66;;;26.81;47.72
27729;BME280;15126;42.186;24.340;2023-08-08T09:24:05;99293.72;;;26.94;47.79
27729;BME280;15126;42.186;24.340;2023-08-08T09:26:34;99284.94;;;27.05;47.82
27729;BME280;15126;42.186;24.340;2023-08-08T09:29:01;99286.94;;;27.10;46.02
27729;BME280;15126;42.186;24.340;2023-08-08T09:31:28;99287.72;;;27.11;46.67
27729;BME280;15126;42.186;24.340;2023-08-08T09:33:56;99277.03;;;27.11;47.44
27729;BME280;15126;42.186;24.340;2023-08-08T09:36:24;99275.78;;;27.26;48.45
27729;BME280;15126;42.186;24.340;2023-08-08T09:38:51;99281.50;;;27.26;46.50
27729;BME280;15126;42.186;24.340;2023-08-08T09:41:18;99281.66;;;27.01;43.08
27729;BME280;15126;42.186;24.340;2023-08-08T09:43:47;99269.94;;;26.99;44.19
27729;BME280;15126;42.186;24.340;2023-08-08T09:46:14;99271.63;;;27.08;45.89
27729;BME280;15126;42.186;24.340;2023-08-08T09:48:41;99273.31;;;27.16;44.36
27729;BME280;15126;42.186;24.340;2023-08-08T09:51:12;99254.66;;;26.78;43.76
27729;BME280;15126;42.186;24.340;2023-08-08T09:53:39;99274.59;;;27.02;45.64
27729;BME280;15126;42.186;24.340;2023-08-08T09:56:06;99277.13;;;27.06;43.04
27729;BME280;15126;42.186;24.340;2023-08-08T09:58:35;99273.31;;;27.16;43.28
27729;BME280;15126;42.186;24.340;2023-08-08T10:01:03;99272.03;;;27.31;44.97
27729;BME280;15126;42.186;24.340;2023-08-08T10:03:33;99272.53;;;27.48;44.62
27729;BME280;15126;42.186;24.340;2023-08-08T10:06:01;99276.88;;;27.23;41.61
27729;BME280;15126;42.186;24.340;2023-08-08T10:08:29;99264.31;;;27.26;43.34
27729;BME280;15126;42.186;24.340;2023-08-08T10:10:56;99266.47;;;27.51;43.75
27729;BME280;15126;42.186;24.340;2023-08-08T10:13:26;99271.78;;;27.60;40.91
27729;BME280;15126;42.186;24.340;2023-08-08T10:15:57;99274.09;;;27.62;40.37
27729;BME280;15126;42.186;24.340;2023-08-08T10:18:27;99273.00;;;27.78;40.68
27729;BME280;15126;42.186;24.340;2023-08-08T10:20:57;99276.84;;;27.81;38.98
27729;BME280;15126;42.186;24.340;2023-08-08T10:23:26;99276.78;;;27.99;41.94
27729;BME280;15126;42.186;24.340;2023-08-08T10:25:53;99269.03;;;27.94;42.15
27729;BME280;15126;42.186;24.340;2023-08-08T10:28:20;99271.03;;;27.99;41.76
27729;BME280;15126;42.186;24.340;2023-08-08T10:30:52;99264.19;;;27.76;37.65
27729;BME280;15126;42.186;24.340;2023-08-08T10:33:20;99256.69;;;27.73;38.06
27729;BME280;15126;42.186;24.340;2023-08-08T10:35:54;99279.41;;;27.84;40.78
27729;BME280;15126;42.186;24.340;2023-08-08T10:38:23;99271.47;;;27.90;40.76
27729;BME280;15126;42.186;24.340;2023-08-08T10:40:56;99265.84;;;27.98;40.43
27729;BME280;15126;42.186;24.340;2023-08-08T10:43:26;99259.00;;;28.01;39.13
27729;BME280;15126;42.186;24.340;2023-08-08T10:46:01;99262.19;;;28.10;40.38
27729;BME280;15126;42.186;24.340;2023-08-08T10:48:28;99262.22;;;28.23;39.02
27729;BME280;15126;42.186;24.340;2023-08-08T10:50:57;99269.69;;;28.40;42.50
27729;BME280;15126;42.186;24.340;2023-08-08T10:53:26;99264.72;;;28.40;41.13
27729;BME280;15126;42.186;24.340;2023-08-08T10:55:59;99265.31;;;28.59;39.40
27729;BME280;15126;42.186;24.340;2023-08-08T10:58:37;99262.44;;;28.59;36.40
27729;BME280;15126;42.186;24.340;2023-08-08T11:01:05;99262.91;;;28.63;36.23
27729;BME280;15126;42.186;24.340;2023-08-08T11:03:35;99270.50;;;28.74;39.01
27729;BME280;15126;42.186;24.340;2023-08-08T11:06:05;99260.88;;;28.71;37.72
27729;BME280;15126;42.186;24.340;2023-08-08T11:08:33;99229.44;;;28.66;39.14
27729;BME280;15126;42.186;24.340;2023-08-08T11:11:02;99244.38;;;28.85;37.10
27729;BME280;15126;42.186;24.340;2023-08-08T11:13:29;99242.34;;;28.93;35.45
27729;BME280;15126;42.186;24.340;2023-08-08T11:16:04;99234.19;;;28.97;36.98
27729;BME280;15126;42.186;24.340;2023-08-08T11:18:33;99239.91;;;28.97;35.43
27729;BME280;15126;42.186;24.340;2023-08-08T11:20:59;99237.44;;;29.01;36.13
27729;BME280;15126;42.186;24.340;2023-08-08T11:23:28;99237.19;;;29.12;36.40
27729;BME280;15126;42.186;24.340;2023-08-08T11:25:54;99233.19;;;29.15;33.58
27729;BME280;15126;42.186;24.340;2023-08-08T11:28:21;99222.56;;;29.23;35.41
27729;BME280;15126;42.186;24.340;2023-08-08T11:30:48;99243.00;;;29.40;35.25
27729;BME280;15126;42.186;24.340;2023-08-08T11:33:19;99242.91;;;29.54;34.93
27729;BME280;15126;42.186;24.340;2023-08-08T11:35:46;99228.78;;;29.35;32.67
27729;BME280;15126;42.186;24.340;2023-08-08T11:38:15;99248.38;;;29.44;34.67
27729;BME280;15126;42.186;24.340;2023-08-08T11:40:44;99231.66;;;29.35;31.65
27729;BME280;15126;42.186;24.340;2023-08-08T11:43:11;99236.44;;;29.32;33.11
27729;BME280;15126;42.186;24.340;2023-08-08T11:45:39;99236.81;;;29.36;33.65
27729;BME280;15126;42.186;24.340;2023-08-08T11:48:08;99223.59;;;29.33;34.72
27729;BME280;15126;42.186;24.340;2023-08-08T11:50:36;99227.53;;;29.23;35.57
27729;BME280;15126;42.186;24.340;2023-08-08T11:53:04;99221.06;;;29.30;36.48
27729;BME280;15126;42.186;24.340;2023-08-08T11:55:34;99230.59;;;29.25;34.92
27729;BME280;15126;42.186;24.340;2023-08-08T11:58:04;99222.81;;;29.12;32.58
27729;BME280;15126;42.186;24.340;2023-08-08T12:00:31;99215.47;;;28.83;33.63
27729;BME280;15126;42.186;24.340;2023-08-08T12:03:01;99215.88;;;28.87;33.33
27729;BME280;15126;42.186;24.340;2023-08-08T12:05:36;99201.22;;;28.98;32.55
27729;BME280;15126;42.186;24.340;2023-08-08T12:08:12;99200.25;;;28.75;32.60
27729;BME280;15126;42.186;24.340;2023-08-08T12:10:39;99202.59;;;28.97;35.79
27729;BME280;15126;42.186;24.340;2023-08-08T12:13:08;99202.34;;;28.95;34.67
27729;BME280;15126;42.186;24.340;2023-08-08T12:15:37;99201.94;;;28.91;35.29
27729;BME280;15126;42.186;24.340;2023-08-08T12:18:04;99198.88;;;28.89;37.76
27729;BME280;15126;42.186;24.340;2023-08-08T12:20:31;99203.84;;;28.88;35.90
27729;BME280;15126;42.186;24.340;2023-08-08T12:22:59;99191.38;;;28.86;35.81
27729;BME280;15126;42.186;24.340;2023-08-08T12:25:26;99187.44;;;28.97;36.61
27729;BME280;15126;42.186;24.340;2023-08-08T12:27:53;99197.72;;;28.92;36.61
27729;BME280;15126;42.186;24.340;2023-08-08T12:30:23;99196.66;;;29.03;37.81
27729;BME280;15126;42.186;24.340;2023-08-08T12:32:50;99185.59;;;29.07;33.13
27729;BME280;15126;42.186;24.340;2023-08-08T12:35:22;99187.00;;;28.92;33.19
27729;BME280;15126;42.186;24.340;2023-08-08T12:37:51;99172.88;;;28.74;34.52
27729;BME280;15126;42.186;24.340;2023-08-08T12:40:18;99189.53;;;28.96;35.69
27729;BME280;15126;42.186;24.340;2023-08-08T12:42:48;99177.75;;;28.86;34.62
27729;BME280;15126;42.186;24.340;2023-08-08T12:45:15;99181.63;;;28.89;33.86
27729;BME280;15126;42.186;24.340;2023-08-08T12:47:44;99188.81;;;29.03;35.15
27729;BME280;15126;42.186;24.340;2023-08-08T12:50:11;99188.00;;;28.95;34.59
27729;BME280;15126;42.186;24.340;2023-08-08T12:52:38;99188.41;;;28.99;34.51